EGAE/LDY METAR and TAF weather

Enter ICAO airport designator
Station Type Date Time Source
EGAE METAR 2022/01/23 11:20 UTC NOAA

EGAE 231120Z 19013KT 9999 FEW018 BKN032 07/04 Q1029


Station Type Date Time Source
EGAE Decoded METAR 2022/01/23 11:20 UTC NOAA

Eglinton / Londonderr, United Kingdom (EGAE) 55-03N 007-09W
Jan 23, 2022 - 06:20 AM EST / 2022.01.23 1120 UTC
Wind: from the S (190 degrees) at 15 MPH (13 KT):0
Visibility: greater than 7 mile(s):0
Sky conditions: mostly cloudy
Temperature: 44 F (7 C)
Dew Point: 39 F (4 C)
Relative Humidity: 81%
Pressure (altimeter): 30.39 in. Hg (1029 hPa)
ob: EGAE 231120Z 19013KT 9999 FEW018 BKN032 07/04 Q1029
cycle: 11

Station Type Date Time Source
EGAE TAF UTC NOAA

Error!

Example: see airport list